EIMEEIWF

Guest
Details From EIME - Baldonnel Casement
To EIWF - Waterford
Flight Number -
Tags generated
Created
Modified
Stats Distance 71 nm / 131 km
Max Altitude 7,300 ft / 2,225 m
Waypoints 3
Social Downloads 1
Likes 0
Share VATSIM

Download

Looking for another format? Having issues loading an existing format? Contact us
Advertisement - Login to hide

Notes

Basic altitude profile: - Ascent Rate: 2500ft/min - Ascent Speed: 250kts - Cruise Altitude: 35000ft - Cruise Speed: 420kts - Descent Rate: 1500ft/min - Descent Speed: 250kts Options: - Use NATs: no - Use PACOTS: no - Use low airways: yes - Use high airways: yes

Route

EIME OLONO EIWF

ID Type Via Altitude Latitude Longitude Leg Dist Tot Dist Heading (true) Name
O EIME APT - 0 ft / 0 m 53.30077˚ -6.45102˚ - 0 nm - Baldonnel Casement
OLONO FIX - 7,300 ft / 2,225 m 52.72337˚ -6.77980˚ 36 nm 36 nm 199° / 199° -
O EIWF APT - 0 ft / 0 m 52.18718˚ -7.08691˚ 34 nm 70 nm 199° / 199° Waterford

Altitude Profile

Advertisement - Login to hide

EIME

Details ICAO EIME
Name Baldonnel Casement
Region Ireland
Timezone Europe/Dublin (UTC+0.0)
Stats Elevation 319 ft / 97 m (AMSL)
Location 53.300768° -6.451018°
Runways 2
Magnetic Variation 3.074° W

METAR

EIME 181500Z 09003KT 9999 FEW018 BKN300 08/05 Q1029

Decode

TAF

Not found

Departure Runways

ID Width Length Bearing (true) Bearing (mag) Surface Threshold Offset Overrun Length
05 151 ft / 46 m 4,789 ft / 1,460 m 40.85° 43.92° Asphalt 0 ft / 0 m 0 ft / 0 m
11 151 ft / 46 m 5,979 ft / 1,823 m 101.95° 105.02° Asphalt 0 ft / 0 m 0 ft / 0 m
23 151 ft / 46 m 4,789 ft / 1,460 m 220.86° 223.93° Asphalt 0 ft / 0 m 0 ft / 0 m
29 151 ft / 46 m 5,979 ft / 1,823 m 281.97° 285.04° Asphalt 600 ft / 183 m 0 ft / 0 m

EIWF

Details ICAO EIWF (WAT)
Name Waterford
Region Ireland
Timezone Europe/Dublin (UTC+0.0)
Stats Elevation 119 ft / 36 m (AMSL)
Location 52.187182° -7.086909°
Runways 1
Magnetic Variation 3.121° W

METAR

EIWF 181500Z 22006KT 9999 SCT009 10/09 Q1030 R21/1/////

Decode

TAF

Not found

Destination Runways

ID Width Length Bearing (true) Bearing (mag) Surface Threshold Offset Overrun Length
03 98 ft / 30 m 4,700 ft / 1,433 m 20.96° 24.08° Asphalt 295 ft / 90 m 0 ft / 0 m
21 98 ft / 30 m 4,700 ft / 1,433 m 200.96° 204.08° Asphalt 469 ft / 143 m 0 ft / 0 m

Approach Navaids

Runway Type Ident Frequency Range Bearing (true) Bearing (mag) Slope Elevation
21 Localiser IWD 110.90 MHz 18 nm / 33 km 201.10° 204.22° - 86 ft / 26 m (AMSL)
21 Glidescope IWD 110.90 MHz 10 nm / 19 km 200.96° 204.08° 3.20° 29 ft / 9 m (AMSL)
21 DME IWD 110.90 MHz 18 nm / 33 km - - - 29 ft / 9 m (AMSL)